Time;durP1;ratioP1;P1;durP2;ratioP2;P2;SDS_P1;SDS_P2;PMS_P1;PMS_P2;Temp;Humidity;BMP_temperature;BMP_pressure;BME280_temperature;BME280_humidity;BME280_pressure;Samples;Min_cycle;Max_cycle;Signal;HPM_P1;HPM_P2
2021/12/30 00:01:24;;;;;;;10.88;9.95;;;6.40;99.90;;;;;;5026921;28;20211;-74
2021/12/30 00:03:50;;;;;;;10.55;9.55;;;6.40;99.90;;;;;;5031765;28;20180;-74
2021/12/30 00:06:22;;;;;;;10.38;9.40;;;6.50;99.90;;;;;;5035117;28;20263;-74
2021/12/30 00:08:50;;;;;;;9.57;8.68;;;6.60;99.90;;;;;;5025901;28;20667;-74
2021/12/30 00:11:15;;;;;;;10.75;9.65;;;6.50;99.90;;;;;;5029009;28;20283;-74
2021/12/30 00:13:45;;;;;;;10.10;9.15;;;6.50;99.90;;;;;;5029646;28;20275;-74
2021/12/30 00:16:16;;;;;;;10.65;9.75;;;6.40;99.90;;;;;;5027119;28;20210;-74
2021/12/30 00:18:42;;;;;;;10.13;9.23;;;6.50;99.90;;;;;;5027281;28;20425;-74
2021/12/30 00:21:08;;;;;;;11.43;10.38;;;6.50;99.90;;;;;;5021668;28;20201;-74
2021/12/30 00:23:34;;;;;;;11.52;10.43;;;6.50;99.90;;;;;;5023507;28;20180;-74
2021/12/30 00:26:00;;;;;;;10.93;9.82;;;6.50;99.90;;;;;;5027011;28;20188;-74
2021/12/30 00:28:28;;;;;;;12.30;10.80;;;6.40;99.90;;;;;;5025862;28;20674;-74
2021/12/30 00:30:54;;;;;;;11.13;10.13;;;6.40;99.90;;;;;;5029061;28;20204;-73
2021/12/30 00:33:20;;;;;;;12.70;11.40;;;6.50;99.90;;;;;;5030139;28;20536;-74
2021/12/30 00:35:46;;;;;;;13.07;11.68;;;6.60;99.90;;;;;;5023749;28;20205;-73
2021/12/30 00:38:12;;;;;;;13.10;11.70;;;6.70;99.90;;;;;;5032594;28;20425;-74
2021/12/30 00:40:38;;;;;;;12.32;11.13;;;6.50;99.90;;;;;;5021765;28;20596;-74
2021/12/30 00:43:05;;;;;;;11.73;10.52;;;6.60;99.90;;;;;;5023823;28;20556;-74
2021/12/30 00:45:33;;;;;;;11.38;10.30;;;6.70;99.90;;;;;;5029593;28;20537;-74
2021/12/30 00:47:59;;;;;;;12.70;10.68;;;6.70;99.90;;;;;;5025354;28;20197;-73
2021/12/30 00:50:26;;;;;;;12.15;11.00;;;6.70;99.90;;;;;;5025442;28;20263;-74
2021/12/30 00:52:53;;;;;;;11.23;10.15;;;6.70;99.90;;;;;;5025054;28;20204;-74
2021/12/30 00:55:19;;;;;;;11.82;10.63;;;6.60;99.90;;;;;;5024267;28;20180;-74
2021/12/30 00:57:45;;;;;;;12.32;11.13;;;6.70;99.90;;;;;;5025664;28;20173;-74
2021/12/30 01:00:15;;;;;;;12.43;11.23;;;6.80;99.90;;;;;;5028720;28;20219;-74
2021/12/30 01:02:41;;;;;;;12.55;10.35;;;6.80;99.90;;;;;;5033037;28;20195;-74
2021/12/30 01:05:08;;;;;;;13.13;11.13;;;6.90;99.90;;;;;;5027261;28;20234;-74
2021/12/30 01:07:34;;;;;;;12.38;10.98;;;6.80;99.90;;;;;;5021987;28;20182;-73
2021/12/30 01:10:00;;;;;;;11.55;10.35;;;6.80;99.90;;;;;;5025119;28;20254;-73
2021/12/30 01:12:27;;;;;;;11.48;10.38;;;6.90;99.90;;;;;;5022577;28;20545;-74
2021/12/30 01:14:53;;;;;;;12.63;11.27;;;6.90;99.90;;;;;;5024145;28;20177;-74
2021/12/30 01:17:27;;;;;;;11.98;10.68;;;6.80;99.90;;;;;;5028284;28;20205;-74
2021/12/30 01:19:53;;;;;;;11.85;10.65;;;6.90;99.90;;;;;;5041870;28;20530;-74
2021/12/30 01:22:25;;;;;;;12.15;10.85;;;6.90;99.90;;;;;;5030784;28;20180;-74
2021/12/30 01:24:51;;;;;;;13.85;11.82;;;6.90;99.90;;;;;;5023124;28;20184;-74
2021/12/30 01:27:18;;;;;;;13.00;11.60;;;6.70;99.90;;;;;;5024674;28;20660;-74
2021/12/30 01:29:44;;;;;;;13.52;11.98;;;6.70;99.90;;;;;;5021048;28;20601;-73
2021/12/30 01:32:10;;;;;;;12.98;11.68;;;6.70;99.90;;;;;;5024582;28;20184;-73
2021/12/30 01:34:36;;;;;;;13.07;11.68;;;6.70;99.90;;;;;;5019831;28;20181;-74
2021/12/30 01:37:04;;;;;;;14.70;12.15;;;6.60;99.90;;;;;;5024773;28;20291;-74
2021/12/30 01:39:33;;;;;;;13.52;11.23;;;6.60;99.90;;;;;;5022148;28;20260;-74
2021/12/30 01:42:00;;;;;;;12.48;11.18;;;6.60;99.90;;;;;;5029166;28;20283;-74
2021/12/30 01:44:28;;;;;;;13.65;11.80;;;6.70;99.90;;;;;;5022007;28;20181;-74
2021/12/30 01:46:55;;;;;;;13.07;11.68;;;6.70;99.90;;;;;;5021517;28;20220;-74
2021/12/30 01:49:21;;;;;;;14.43;11.20;;;6.60;99.90;;;;;;5024846;28;20719;-74
2021/12/30 01:51:48;;;;;;;12.95;11.32;;;6.60;99.90;;;;;;5028492;28;20200;-74
2021/12/30 01:54:14;;;;;;;13.13;10.98;;;6.60;99.90;;;;;;5023047;28;20188;-74
2021/12/30 01:56:40;;;;;;;13.65;11.70;;;6.60;99.90;;;;;;5027884;28;20235;-74
2021/12/30 01:59:06;;;;;;;12.65;11.32;;;6.50;99.90;;;;;;5021950;28;20711;-74
2021/12/30 02:01:33;;;;;;;13.70;11.50;;;6.60;99.90;;;;;;5022729;28;20197;-74
2021/12/30 02:03:58;;;;;;;13.20;11.70;;;6.50;99.90;;;;;;5024066;28;20195;-75
2021/12/30 02:06:25;;;;;;;13.10;11.50;;;6.40;99.90;;;;;;5023382;28;20177;-74
2021/12/30 02:08:51;;;;;;;12.60;11.25;;;6.40;99.90;;;;;;5024266;28;20388;-74
2021/12/30 02:11:18;;;;;;;13.57;12.13;;;6.40;99.90;;;;;;5019967;28;20200;-74
2021/12/30 02:13:46;;;;;;;14.25;11.70;;;6.50;99.90;;;;;;5023350;28;20184;-74
2021/12/30 02:16:12;;;;;;;13.32;11.63;;;6.50;99.90;;;;;;5026459;28;20253;-74
2021/12/30 02:18:37;;;;;;;12.88;11.48;;;6.60;99.90;;;;;;5022668;28;20176;-74
2021/12/30 02:21:03;;;;;;;14.80;11.50;;;6.70;99.90;;;;;;5021968;28;20280;-74
2021/12/30 02:23:34;;;;;;;12.13;10.52;;;6.80;99.90;;;;;;5025913;28;20239;-74
2021/12/30 02:26:03;;;;;;;12.90;10.60;;;6.80;99.90;;;;;;5023152;28;20655;-73
2021/12/30 02:28:32;;;;;;;13.05;11.15;;;6.90;99.90;;;;;;5027582;28;20243;-75
2021/12/30 02:31:01;;;;;;;11.68;10.48;;;6.70;99.90;;;;;;5022111;28;20204;-74
2021/12/30 02:33:27;;;;;;;12.25;10.95;;;6.70;99.90;;;;;;5026027;28;20184;-74
2021/12/30 02:35:54;;;;;;;11.70;10.50;;;6.70;99.90;;;;;;5020707;28;20212;-74
2021/12/30 02:38:21;;;;;;;12.40;10.80;;;6.70;99.90;;;;;;5027719;28;20191;-74
2021/12/30 02:40:50;;;;;;;12.60;10.30;;;6.70;99.90;;;;;;5021836;28;20199;-73
2021/12/30 02:43:20;;;;;;;11.27;9.75;;;6.80;99.90;;;;;;5017476;28;20231;-74
2021/12/30 02:45:46;;;;;;;11.85;10.65;;;6.90;99.90;;;;;;5023062;28;20239;-74
2021/12/30 02:48:14;;;;;;;11.90;10.55;;;6.80;99.90;;;;;;5028668;28;20741;-74
2021/12/30 02:50:40;;;;;;;11.35;10.07;;;6.80;99.90;;;;;;5024540;28;20208;-73
2021/12/30 02:53:05;;;;;;;10.98;9.88;;;6.80;99.90;;;;;;5023891;28;20235;-73
2021/12/30 02:55:31;;;;;;;12.73;10.70;;;6.80;99.90;;;;;;5027545;28;20722;-74
2021/12/30 02:57:57;;;;;;;11.23;10.10;;;6.70;99.90;;;;;;5019975;28;20185;-74
2021/12/30 03:00:22;;;;;;;11.63;10.30;;;6.80;99.90;;;;;;5024116;28;20558;-74
2021/12/30 03:02:48;;;;;;;12.90;10.70;;;6.80;99.90;;;;;;5026610;28;20522;-74
2021/12/30 03:08:37;;;;;;;11.00;9.90;;;6.70;99.90;;;;;;5018609;28;20241;-74
2021/12/30 03:11:04;;;;;;;10.75;9.65;;;6.80;99.90;;;;;;5029910;28;20208;-74
2021/12/30 03:13:31;;;;;;;10.55;9.45;;;6.80;99.90;;;;;;5027569;28;20462;-74
2021/12/30 03:16:05;;;;;;;11.43;9.98;;;6.80;99.90;;;;;;5030307;28;20623;-75
2021/12/30 03:18:36;;;;;;;10.50;9.38;;;6.80;99.90;;;;;;5021548;28;20669;-74
2021/12/30 03:21:04;;;;;;;11.73;10.50;;;6.80;99.90;;;;;;5024575;28;20581;-73
2021/12/30 03:23:30;;;;;;;11.05;9.75;;;6.70;99.90;;;;;;5024868;28;20172;-74
2021/12/30 03:25:56;;;;;;;11.93;9.57;;;6.80;99.90;;;;;;5027300;28;20189;-74
2021/12/30 03:28:22;;;;;;;11.52;10.32;;;6.80;99.90;;;;;;5029050;28;20180;-74
2021/12/30 03:30:48;;;;;;;12.48;10.27;;;6.60;99.90;;;;;;5024142;28;20201;-75
2021/12/30 03:33:14;;;;;;;10.85;9.73;;;6.70;99.90;;;;;;5027068;28;20211;-74
2021/12/30 03:35:39;;;;;;;11.32;9.80;;;6.80;99.90;;;;;;5029563;28;20217;-74
2021/12/30 03:38:06;;;;;;;12.57;10.10;;;6.80;99.90;;;;;;5031101;28;20181;-74
2021/12/30 03:40:32;;;;;;;12.93;10.65;;;6.80;99.90;;;;;;5030337;28;20288;-74
2021/12/30 03:42:58;;;;;;;10.50;9.40;;;6.70;99.90;;;;;;5024899;28;20223;-74
2021/12/30 03:45:24;;;;;;;10.82;9.73;;;6.80;99.90;;;;;;5029049;28;20183;-74
2021/12/30 03:47:52;;;;;;;11.00;9.52;;;6.90;99.90;;;;;;5030367;28;20584;-74
2021/12/30 03:50:21;;;;;;;11.00;9.90;;;6.80;99.90;;;;;;5034400;28;20247;-75
2021/12/30 03:52:56;;;;;;;10.68;8.88;;;6.90;99.90;;;;;;5026162;28;20181;-74
2021/12/30 03:55:23;;;;;;;10.73;9.63;;;6.90;99.90;;;;;;5033388;28;20564;-74
2021/12/30 03:57:50;;;;;;;10.95;9.35;;;6.90;99.90;;;;;;5034360;28;20224;-75
2021/12/30 04:00:17;;;;;;;10.13;8.88;;;7.00;99.90;;;;;;5032060;28;20243;-75
2021/12/30 04:02:43;;;;;;;11.43;9.90;;;7.10;99.90;;;;;;5021735;28;20182;-74
2021/12/30 04:05:10;;;;;;;11.82;9.65;;;7.00;99.90;;;;;;5033436;28;20752;-74
2021/12/30 04:07:36;;;;;;;10.82;9.73;;;6.90;99.90;;;;;;5016331;28;20184;-74
2021/12/30 04:10:06;;;;;;;10.38;9.30;;;6.80;99.90;;;;;;5029439;28;20225;-74
2021/12/30 04:12:31;;;;;;;9.48;8.48;;;6.90;99.90;;;;;;5026239;28;20195;-74
2021/12/30 04:14:57;;;;;;;10.80;9.10;;;6.90;99.90;;;;;;5032419;28;20656;-74
2021/12/30 04:17:23;;;;;;;9.65;8.65;;;7.10;99.90;;;;;;5032042;28;20200;-74
2021/12/30 04:19:50;;;;;;;10.18;9.18;;;7.20;99.90;;;;;;5025566;28;20553;-74
2021/12/30 04:22:18;;;;;;;9.77;8.68;;;7.10;99.90;;;;;;5026379;28;20545;-74
2021/12/30 04:24:45;;;;;;;10.63;9.25;;;7.20;99.90;;;;;;5033651;28;20169;-75
2021/12/30 04:27:10;;;;;;;9.57;8.57;;;7.30;99.90;;;;;;5031768;28;20189;-75
2021/12/30 04:29:36;;;;;;;9.80;8.80;;;7.30;99.90;;;;;;5027182;28;20299;-75
2021/12/30 04:32:02;;;;;;;8.77;7.88;;;7.20;99.90;;;;;;5027614;28;20751;-74
2021/12/30 04:34:28;;;;;;;9.90;8.90;;;7.30;99.90;;;;;;5028633;28;20698;-74
2021/12/30 04:36:58;;;;;;;9.57;8.68;;;7.10;99.90;;;;;;5029293;28;20209;-73
2021/12/30 04:39:27;;;;;;;9.27;8.38;;;7.00;99.90;;;;;;5027437;28;20168;-74
2021/12/30 04:41:54;;;;;;;9.50;8.60;;;7.20;99.90;;;;;;5026479;28;20197;-74
2021/12/30 04:44:20;;;;;;;9.05;8.15;;;7.20;99.90;;;;;;5029957;28;20169;-74
2021/12/30 04:46:46;;;;;;;9.93;8.50;;;7.30;99.90;;;;;;5030232;28;20232;-74
2021/12/30 04:49:12;;;;;;;9.40;8.48;;;7.20;99.90;;;;;;5029779;28;20669;-74
2021/12/30 04:51:38;;;;;;;8.63;7.82;;;7.30;99.90;;;;;;5030274;28;20215;-74
2021/12/30 04:54:04;;;;;;;9.43;8.20;;;7.20;99.90;;;;;;5034800;28;20648;-74
2021/12/30 04:56:29;;;;;;;10.75;8.73;;;7.10;99.90;;;;;;5028319;28;20201;-74
2021/12/30 04:58:55;;;;;;;9.50;8.02;;;7.10;99.90;;;;;;5026631;28;20193;-74
2021/12/30 05:01:21;;;;;;;9.40;8.48;;;7.10;99.90;;;;;;5030056;28;20211;-74
2021/12/30 05:03:46;;;;;;;10.13;8.52;;;7.10;99.90;;;;;;5029969;28;20204;-74
2021/12/30 05:06:12;;;;;;;9.48;8.52;;;7.10;99.90;;;;;;5031661;28;20205;-74
2021/12/30 05:08:38;;;;;;;9.35;8.45;;;7.10;99.90;;;;;;5028498;28;20188;-74
2021/12/30 05:11:05;;;;;;;8.90;8.00;;;7.00;99.90;;;;;;5028618;28;20214;-75
2021/12/30 05:13:31;;;;;;;10.35;8.43;;;7.10;99.90;;;;;;5032575;28;20173;-74
2021/12/30 05:15:57;;;;;;;10.00;9.00;;;7.10;99.90;;;;;;5027975;28;20205;-75
2021/12/30 05:18:29;;;;;;;9.60;8.55;;;7.00;99.90;;;;;;5030058;28;20517;-75
2021/12/30 05:20:55;;;;;;;8.90;7.65;;;6.90;99.90;;;;;;5027370;28;20203;-74
2021/12/30 05:23:21;;;;;;;11.15;8.73;;;7.00;99.90;;;;;;5026382;28;20185;-74
2021/12/30 05:25:46;;;;;;;10.25;8.65;;;7.00;99.90;;;;;;5027050;28;20605;-74
2021/12/30 05:28:12;;;;;;;8.23;7.43;;;6.90;99.90;;;;;;5063888;28;20203;-74
2021/12/30 05:30:38;;;;;;;8.95;8.05;;;7.00;99.90;;;;;;5032631;28;20197;-75
2021/12/30 05:33:03;;;;;;;9.20;7.47;;;7.10;99.90;;;;;;5034390;28;20185;-74
2021/12/30 05:35:29;;;;;;;8.93;7.97;;;7.10;99.90;;;;;;5033606;28;20565;-73
2021/12/30 05:37:55;;;;;;;10.10;8.15;;;7.20;99.90;;;;;;5031217;28;20177;-73
2021/12/30 05:40:22;;;;;;;8.00;7.20;;;7.20;99.90;;;;;;5027389;28;20403;-74
2021/12/30 05:42:48;;;;;;;7.00;6.30;;;7.20;99.90;;;;;;5029284;28;20181;-74
2021/12/30 05:45:16;;;;;;;3.88;3.58;;;7.20;99.90;;;;;;5026472;28;20221;-73
2021/12/30 05:47:48;;;;;;;6.40;5.45;;;7.30;99.90;;;;;;5029038;28;20180;-74
2021/12/30 05:50:20;;;;;;;7.68;5.25;;;7.40;99.90;;;;;;5028847;28;20200;-74
2021/12/30 05:52:46;;;;;;;7.78;6.53;;;7.50;99.90;;;;;;5031020;28;20172;-74
2021/12/30 05:55:13;;;;;;;8.77;6.55;;;7.60;99.90;;;;;;5019813;28;20272;-74
2021/12/30 05:57:39;;;;;;;7.18;6.13;;;7.60;99.90;;;;;;5030749;28;20748;-74
2021/12/30 06:00:09;;;;;;;7.68;6.95;;;7.60;99.90;;;;;;5030087;28;20363;-73
2021/12/30 06:02:35;;;;;;;8.45;7.35;;;7.60;99.90;;;;;;5026969;28;20258;-74
2021/12/30 06:05:00;;;;;;;8.77;6.93;;;7.60;99.90;;;;;;5027116;28;20322;-74
2021/12/30 06:07:26;;;;;;;8.85;6.45;;;7.60;99.90;;;;;;5028708;28;20188;-74
2021/12/30 06:09:52;;;;;;;6.95;6.25;;;7.60;99.90;;;;;;5024830;28;20185;-74
2021/12/30 06:12:17;;;;;;;8.43;6.10;;;7.60;99.90;;;;;;5021558;28;20176;-74
2021/12/30 06:14:43;;;;;;;7.90;6.90;;;7.60;99.90;;;;;;5027857;28;20231;-74
2021/12/30 06:17:11;;;;;;;8.93;6.72;;;7.50;99.90;;;;;;5022824;28;20266;-74
2021/12/30 06:19:36;;;;;;;9.05;6.57;;;7.40;99.90;;;;;;5023594;28;20185;-74
2021/12/30 06:22:02;;;;;;;7.00;6.28;;;7.50;99.90;;;;;;5024571;28;20199;-74
2021/12/30 06:24:28;;;;;;;9.25;7.25;;;7.50;99.90;;;;;;5026833;28;20185;-74
2021/12/30 06:26:54;;;;;;;7.40;6.57;;;7.50;99.90;;;;;;5022708;28;20704;-74
2021/12/30 06:29:19;;;;;;;8.43;7.18;;;7.50;99.90;;;;;;5023198;28;20204;-75
2021/12/30 06:31:45;;;;;;;9.43;6.82;;;7.50;99.90;;;;;;5023887;28;20211;-75
2021/12/30 06:34:11;;;;;;;8.18;6.35;;;7.50;99.90;;;;;;5023545;28;20188;-75
2021/12/30 06:36:37;;;;;;;6.63;5.93;;;7.50;99.90;;;;;;5022824;28;20212;-74
2021/12/30 06:39:03;;;;;;;6.07;5.35;;;7.60;99.90;;;;;;5024606;28;20176;-74
2021/12/30 06:41:28;;;;;;;6.85;5.75;;;7.60;99.90;;;;;;5024911;28;20232;-74
2021/12/30 06:43:54;;;;;;;7.53;6.80;;;7.70;99.90;;;;;;5024037;28;20203;-74
2021/12/30 06:46:21;;;;;;;8.88;5.90;;;7.60;99.90;;;;;;5027155;28;20185;-75
2021/12/30 06:48:47;;;;;;;8.07;6.53;;;7.60;99.90;;;;;;5023754;28;20181;-75
2021/12/30 06:51:13;;;;;;;8.30;5.65;;;7.60;99.90;;;;;;5018192;28;20235;-75
2021/12/30 06:53:39;;;;;;;8.10;5.47;;;7.70;99.90;;;;;;5018043;28;20200;-74
2021/12/30 06:56:05;;;;;;;5.88;5.38;;;7.70;99.90;;;;;;5016497;28;20205;-74
2021/12/30 06:58:31;;;;;;;5.43;4.93;;;7.70;99.90;;;;;;5020138;28;20177;-74
2021/12/30 07:00:57;;;;;;;5.25;4.85;;;7.70;99.90;;;;;;5022018;28;20217;-74
2021/12/30 07:03:23;;;;;;;5.30;4.90;;;7.80;99.90;;;;;;5015855;28;20169;-74
2021/12/30 07:05:52;;;;;;;5.28;4.78;;;7.90;99.90;;;;;;5023894;28;20178;-73
2021/12/30 07:08:18;;;;;;;6.28;4.93;;;8.00;99.90;;;;;;5016731;28;20189;-74
2021/12/30 07:10:44;;;;;;;5.10;4.60;;;8.00;99.90;;;;;;5019275;28;20209;-74
2021/12/30 07:13:09;;;;;;;4.22;3.67;;;8.00;99.90;;;;;;5018513;28;20184;-73
2021/12/30 07:15:35;;;;;;;6.03;3.35;;;8.10;99.90;;;;;;5018726;28;20209;-75
2021/12/30 07:18:01;;;;;;;3.78;3.22;;;8.30;99.90;;;;;;5018819;28;20188;-74
2021/12/30 07:20:26;;;;;;;3.53;1.83;;;8.40;99.90;;;;;;5022734;28;20199;-74
2021/12/30 07:22:52;;;;;;;3.97;1.98;;;8.50;99.90;;;;;;5018819;28;20718;-74
2021/12/30 07:25:18;;;;;;;6.05;2.10;;;8.70;99.90;;;;;;5022251;28;20180;-73
2021/12/30 07:27:45;;;;;;;3.17;1.83;;;8.90;99.90;;;;;;5029092;28;20184;-73
2021/12/30 07:30:12;;;;;;;1.85;1.65;;;9.20;99.90;;;;;;5029737;28;20500;-73
2021/12/30 07:32:37;;;;;;;2.80;1.77;;;9.40;99.90;;;;;;5027475;28;20275;-74
2021/12/30 07:35:03;;;;;;;2.53;1.27;;;9.50;99.90;;;;;;5023441;28;20602;-74
2021/12/30 07:37:29;;;;;;;2.75;1.77;;;9.60;99.90;;;;;;5027872;28;20235;-74
2021/12/30 07:39:55;;;;;;;4.13;2.47;;;9.60;99.90;;;;;;5026895;28;20181;-74
2021/12/30 07:42:20;;;;;;;5.28;3.35;;;9.60;99.90;;;;;;5026427;28;20176;-73
2021/12/30 07:44:46;;;;;;;2.72;2.30;;;9.60;99.90;;;;;;5023124;28;20185;-74
2021/12/30 07:47:12;;;;;;;4.40;1.92;;;9.70;99.90;;;;;;5026358;28;20223;-74
2021/12/30 07:49:37;;;;;;;5.93;2.22;;;9.60;99.90;;;;;;5028621;28;20187;-74
2021/12/30 07:52:06;;;;;;;4.38;1.95;;;9.70;99.90;;;;;;5024973;28;20217;-74
2021/12/30 07:54:33;;;;;;;5.68;2.47;;;9.70;99.90;;;;;;5021465;28;20709;-74
2021/12/30 07:56:58;;;;;;;4.30;2.33;;;9.70;99.90;;;;;;5027664;28;20251;-73
2021/12/30 07:59:24;;;;;;;1.98;1.88;;;9.70;99.90;;;;;;5029990;28;20224;-74
2021/12/30 08:01:50;;;;;;;5.65;2.33;;;9.70;99.90;;;;;;5022392;28;20300;-74
2021/12/30 08:04:15;;;;;;;2.92;2.17;;;9.80;99.90;;;;;;5025087;28;20605;-74
2021/12/30 08:06:41;;;;;;;3.80;2.30;;;9.80;99.90;;;;;;5028235;28;20766;-74
2021/12/30 08:09:07;;;;;;;2.83;2.28;;;9.90;99.90;;;;;;5021819;28;20185;-74
2021/12/30 08:11:34;;;;;;;5.68;2.45;;;9.90;99.90;;;;;;5029328;28;20203;-74
2021/12/30 08:14:00;;;;;;;3.08;2.75;;;9.80;99.90;;;;;;5023745;28;20196;-74
2021/12/30 08:16:29;;;;;;;5.32;3.10;;;9.70;99.90;;;;;;5027023;28;20208;-74
2021/12/30 08:18:55;;;;;;;4.13;3.30;;;9.70;99.90;;;;;;5030229;28;20177;-74
2021/12/30 08:21:22;;;;;;;3.90;3.60;;;9.60;99.90;;;;;;5033631;28;20276;-77
2021/12/30 08:23:51;;;;;;;2.65;1.70;;;9.60;99.90;;;;;;5029151;28;20178;-77
2021/12/30 08:26:17;;;;;;;3.30;2.38;;;9.60;99.90;;;;;;5028486;28;20911;-76
2021/12/30 08:28:43;;;;;;;2.65;2.40;;;9.70;99.90;;;;;;5032409;28;20192;-77
2021/12/30 08:31:09;;;;;;;3.33;2.95;;;9.80;99.90;;;;;;5032247;28;20205;-77
2021/12/30 08:33:34;;;;;;;3.53;2.67;;;9.90;99.90;;;;;;5036607;28;20185;-77
2021/12/30 08:36:00;;;;;;;4.88;2.70;;;10.00;99.90;;;;;;5038992;28;20242;-77
2021/12/30 08:38:26;;;;;;;4.85;2.70;;;10.00;99.90;;;;;;5030398;28;20168;-77
2021/12/30 08:40:52;;;;;;;3.55;3.15;;;10.10;99.90;;;;;;5026929;28;20254;-78
2021/12/30 08:43:18;;;;;;;5.07;2.88;;;10.10;99.90;;;;;;5028553;28;20667;-77
2021/12/30 08:45:46;;;;;;;3.10;2.80;;;10.20;99.90;;;;;;5027112;28;20180;-77
2021/12/30 08:48:12;;;;;;;4.72;2.75;;;10.30;99.90;;;;;;5026030;28;20181;-78
2021/12/30 08:50:38;;;;;;;2.95;2.75;;;10.30;99.90;;;;;;5027434;28;20237;-78
2021/12/30 08:53:04;;;;;;;3.25;2.80;;;10.30;99.90;;;;;;5032277;28;20185;-79
2021/12/30 08:55:30;;;;;;;2.65;2.45;;;10.40;99.90;;;;;;5025878;28;20169;-79
2021/12/30 08:57:55;;;;;;;3.00;2.72;;;10.40;99.90;;;;;;5023310;28;20305;-79
2021/12/30 09:00:25;;;;;;;6.68;3.67;;;10.40;99.90;;;;;;5028970;28;20650;-78
2021/12/30 09:02:53;;;;;;;5.03;3.17;;;10.40;99.90;;;;;;5031933;28;20596;-78
2021/12/30 09:05:19;;;;;;;2.88;2.63;;;10.40;99.90;;;;;;5029269;28;20173;-78
2021/12/30 09:07:45;;;;;;;4.38;3.38;;;10.50;99.90;;;;;;5028320;28;20189;-78
2021/12/30 09:10:13;;;;;;;6.03;3.60;;;10.50;99.90;;;;;;5022667;28;20232;-79
2021/12/30 09:12:43;;;;;;;3.38;3.17;;;10.50;99.90;;;;;;5024034;28;20189;-76
2021/12/30 09:15:11;;;;;;;4.38;3.20;;;10.60;99.90;;;;;;5028461;28;20192;-76
2021/12/30 09:17:37;;;;;;;3.97;3.10;;;10.80;99.90;;;;;;5030924;28;20540;-76
2021/12/30 09:20:03;;;;;;;4.68;3.60;;;10.90;99.90;;;;;;5026670;28;20201;-77
2021/12/30 09:22:29;;;;;;;6.88;4.65;;;10.90;99.90;;;;;;5032374;28;20696;-76
2021/12/30 09:24:55;;;;;;;4.75;3.78;;;11.00;99.90;;;;;;5027258;28;20189;-76
2021/12/30 09:27:21;;;;;;;4.20;3.85;;;11.00;99.90;;;;;;5032649;28;20185;-76
2021/12/30 09:29:46;;;;;;;6.35;5.47;;;11.00;99.90;;;;;;5025704;28;20184;-77
2021/12/30 09:32:12;;;;;;;4.03;3.58;;;11.10;99.90;;;;;;5033352;28;20179;-76
2021/12/30 09:34:38;;;;;;;2.78;2.67;;;11.00;99.90;;;;;;5021695;28;20197;-75
2021/12/30 09:37:09;;;;;;;3.05;2.85;;;11.00;99.90;;;;;;5031748;28;20870;-75
2021/12/30 09:39:38;;;;;;;2.47;2.38;;;11.00;99.90;;;;;;5029567;28;20185;-74
2021/12/30 09:42:04;;;;;;;2.53;2.17;;;11.00;99.90;;;;;;5031225;28;20210;-76
2021/12/30 09:44:30;;;;;;;2.97;2.80;;;11.00;99.90;;;;;;5031702;28;20179;-75
2021/12/30 09:46:56;;;;;;;2.33;2.22;;;10.90;99.90;;;;;;5034699;28;20246;-76
2021/12/30 09:49:24;;;;;;;3.30;2.65;;;10.90;99.90;;;;;;5033542;28;20200;-75
2021/12/30 09:51:50;;;;;;;2.88;2.67;;;10.90;99.90;;;;;;5036545;28;20209;-77
2021/12/30 09:54:16;;;;;;;2.95;2.40;;;11.00;99.90;;;;;;5032530;28;20215;-77
2021/12/30 09:56:43;;;;;;;3.05;2.40;;;11.00;99.90;;;;;;5032446;28;20200;-78
2021/12/30 09:59:10;;;;;;;2.05;1.95;;;11.00;99.90;;;;;;5028737;28;20191;-77
2021/12/30 10:01:39;;;;;;;2.33;2.13;;;11.10;99.90;;;;;;5035614;28;20200;-77
2021/12/30 10:04:06;;;;;;;1.52;1.50;;;11.10;99.90;;;;;;5050679;28;20545;-76
2021/12/30 10:06:33;;;;;;;2.30;1.73;;;11.20;99.90;;;;;;5030816;28;20215;-76
2021/12/30 10:09:12;;;;;;;1.90;1.80;;;11.30;99.90;;;;;;5033774;28;20188;-76
2021/12/30 10:12:04;;;;;;;1.92;1.83;;;11.40;99.90;;;;;;5033256;28;20204;-77
2021/12/30 10:14:37;;;;;;;1.42;1.40;;;11.50;99.90;;;;;;5029072;28;20247;-75
2021/12/30 10:17:23;;;;;;;1.70;1.60;;;11.50;99.90;;;;;;5032341;28;20258;-75
2021/12/30 10:19:50;;;;;;;1.45;1.38;;;11.60;99.90;;;;;;5035746;28;20187;-75
2021/12/30 10:22:19;;;;;;;3.15;1.90;;;11.60;99.90;;;;;;5030605;28;20576;-75
2021/12/30 10:24:46;;;;;;;2.00;1.90;;;11.70;99.90;;;;;;5030466;28;20185;-75
2021/12/30 10:27:33;;;;;;;1.50;1.50;;;11.70;99.90;;;;;;5035291;28;20199;-74
2021/12/30 10:29:59;;;;;;;1.67;1.67;;;11.70;99.90;;;;;;5035248;28;20195;-74
2021/12/30 10:32:28;;;;;;;1.13;1.13;;;11.70;99.90;;;;;;5030345;28;20188;-75
2021/12/30 10:35:13;;;;;;;1.85;1.83;;;11.80;99.90;;;;;;5033387;28;20591;-75
2021/12/30 10:37:44;;;;;;;1.90;1.90;;;11.80;99.90;;;;;;5034543;28;20201;-75
2021/12/30 10:40:31;;;;;;;2.03;1.95;;;11.80;99.90;;;;;;5029877;28;20212;-75
2021/12/30 10:43:13;;;;;;;1.80;1.70;;;11.90;99.90;;;;;;5030443;28;20188;-75
2021/12/30 10:45:39;;;;;;;2.10;2.00;;;11.90;99.90;;;;;;5031044;28;20226;-75
2021/12/30 10:48:08;;;;;;;1.30;1.30;;;12.00;99.90;;;;;;5033626;28;20189;-75
2021/12/30 10:50:34;;;;;;;1.13;1.13;;;12.10;99.90;;;;;;5028934;28;20290;-75
2021/12/30 10:53:00;;;;;;;1.50;1.50;;;12.20;99.90;;;;;;5030268;28;20199;-74
2021/12/30 10:55:26;;;;;;;1.55;1.40;;;12.20;99.90;;;;;;5030734;28;20650;-74
2021/12/30 10:57:53;;;;;;;1.38;1.27;;;12.20;99.90;;;;;;5033911;28;20231;-75
2021/12/30 11:00:32;;;;;;;1.85;1.38;;;12.20;99.90;;;;;;5031614;28;20209;-75
2021/12/30 11:03:20;;;;;;;2.08;1.70;;;12.10;99.90;;;;;;5031301;28;20212;-75
2021/12/30 11:06:22;;;;;;;1.80;1.70;;;12.10;99.90;;;;;;5029120;28;20235;-74
2021/12/30 11:08:49;;;;;;;1.65;1.55;;;12.00;99.90;;;;;;4985244;28;20665;-75
2021/12/30 11:11:23;;;;;;;1.50;1.50;;;12.00;99.90;;;;;;5025215;28;20216;-75
2021/12/30 11:14:06;;;;;;;1.20;1.20;;;12.00;99.90;;;;;;5031151;28;20176;-75
2021/12/30 11:16:53;;;;;;;1.33;1.30;;;12.00;99.90;;;;;;5032282;28;20203;-75
2021/12/30 11:19:21;;;;;;;1.15;1.15;;;12.00;99.90;;;;;;5032612;28;20611;-75
2021/12/30 11:21:49;;;;;;;1.30;1.30;;;12.00;99.90;;;;;;5033463;28;20287;-75
2021/12/30 11:24:14;;;;;;;1.08;1.08;;;12.10;99.90;;;;;;5031746;28;20662;-74
2021/12/30 11:26:40;;;;;;;1.48;1.38;;;12.00;99.90;;;;;;5031950;28;20195;-74
2021/12/30 11:29:06;;;;;;;1.10;1.10;;;12.00;99.90;;;;;;5032542;28;20207;-75
2021/12/30 11:31:32;;;;;;;1.17;1.17;;;12.00;99.90;;;;;;5031056;28;20596;-74
2021/12/30 11:33:59;;;;;;;1.10;1.10;;;12.00;99.90;;;;;;5030185;28;20188;-74
2021/12/30 11:36:28;;;;;;;1.00;1.00;;;12.10;99.90;;;;;;5032889;28;20201;-74
2021/12/30 11:38:57;;;;;;;1.00;1.00;;;12.10;99.90;;;;;;5032073;28;20697;-74
2021/12/30 11:41:26;;;;;;;1.20;1.15;;;12.10;99.90;;;;;;5028245;28;20211;-73
2021/12/30 11:43:52;;;;;;;1.08;1.08;;;12.20;99.90;;;;;;5029017;28;20188;-74
2021/12/30 11:46:37;;;;;;;1.10;1.10;;;12.20;99.90;;;;;;5034202;28;20177;-74
2021/12/30 11:49:04;;;;;;;0.90;0.90;;;12.20;99.90;;;;;;5032675;28;20188;-73
2021/12/30 11:51:45;;;;;;;1.13;1.13;;;12.30;99.90;;;;;;5034124;28;20201;-74
2021/12/30 11:54:40;;;;;;;2.10;1.17;;;12.30;99.90;;;;;;5037049;28;20188;-74
2021/12/30 11:57:28;;;;;;;1.10;1.10;;;12.40;99.90;;;;;;5037452;28;20240;-74
2021/12/30 11:59:55;;;;;;;0.68;0.68;;;12.50;99.90;;;;;;5035921;28;20895;-74
2021/12/30 12:02:37;;;;;;;1.00;1.00;;;12.60;99.90;;;;;;5034368;28;20189;-74
2021/12/30 12:05:43;;;;;;;0.88;0.88;;;12.70;99.90;;;;;;5030595;28;20181;-74
2021/12/30 12:08:12;;;;;;;2.28;1.20;;;12.70;99.90;;;;;;5033989;28;20199;-74
2021/12/30 12:10:40;;;;;;;1.17;1.17;;;12.60;99.90;;;;;;5030134;28;20216;-74
2021/12/30 12:13:31;;;;;;;1.20;1.10;;;12.60;99.90;;;;;;5034954;28;20180;-74
2021/12/30 12:16:00;;;;;;;0.70;0.70;;;12.60;99.90;;;;;;5034855;28;20254;-74
2021/12/30 12:18:26;;;;;;;0.93;0.93;;;12.70;99.90;;;;;;5033961;28;20211;-74
2021/12/30 12:20:54;;;;;;;0.70;0.70;;;12.80;99.90;;;;;;5035124;28;20205;-73
2021/12/30 12:23:39;;;;;;;1.73;1.27;;;12.80;99.90;;;;;;5034441;28;20169;-74
2021/12/30 12:26:11;;;;;;;0.90;0.90;;;12.80;99.90;;;;;;5035503;28;20180;-73
2021/12/30 12:28:38;;;;;;;1.13;1.05;;;12.80;99.90;;;;;;5037277;28;20602;-74
2021/12/30 12:31:08;;;;;;;0.90;0.90;;;12.80;99.90;;;;;;5033762;28;20239;-73
2021/12/30 12:33:36;;;;;;;1.02;1.02;;;12.80;99.90;;;;;;5035387;28;20709;-73
2021/12/30 12:36:18;;;;;;;2.10;1.00;;;12.80;99.90;;;;;;5033912;28;20274;-73
2021/12/30 12:38:48;;;;;;;1.02;0.90;;;12.80;99.90;;;;;;5031359;28;20191;-72
2021/12/30 12:41:21;;;;;;;2.03;1.80;;;12.80;99.90;;;;;;5028276;28;20579;-71
2021/12/30 12:44:12;;;;;;;1.33;1.23;;;12.80;99.90;;;;;;5034307;28;20176;-72
2021/12/30 12:46:41;;;;;;;1.20;1.10;;;12.80;99.90;;;;;;5030657;28;20544;-72
2021/12/30 12:49:07;;;;;;;0.93;0.93;;;12.80;99.90;;;;;;5032566;28;20184;-73
2021/12/30 12:51:34;;;;;;;0.85;0.85;;;12.90;99.90;;;;;;5034724;28;20557;-72
2021/12/30 12:54:05;;;;;;;1.23;1.17;;;13.00;99.90;;;;;;5025809;28;20276;-72
2021/12/30 12:56:38;;;;;;;0.90;0.90;;;13.00;99.90;;;;;;5030183;28;20273;-72